sensor_id;sensor_type;location;lat;lon;timestamp;temperature;humidity
21298;DHT22;10808;48.010;11.326;2023-01-24T00:01:02;1.90;99.90
21298;DHT22;10808;48.010;11.326;2023-01-24T00:03:28;1.90;99.90
21298;DHT22;10808;48.010;11.326;2023-01-24T00:05:54;1.90;99.90
21298;DHT22;10808;48.010;11.326;2023-01-24T00:08:21;1.90;99.90
21298;DHT22;10808;48.010;11.326;2023-01-24T00:10:49;1.90;99.90
21298;DHT22;10808;48.010;11.326;2023-01-24T00:13:22;1.90;99.90
21298;DHT22;10808;48.010;11.326;2023-01-24T00:15:48;1.90;99.90
21298;DHT22;10808;48.010;11.326;2023-01-24T00:18:14;1.90;99.90
21298;DHT22;10808;48.010;11.326;2023-01-24T00:20:40;1.90;99.90
21298;DHT22;10808;48.010;11.326;2023-01-24T00:23:06;1.90;99.90
21298;DHT22;10808;48.010;11.326;2023-01-24T00:25:32;2.00;99.90
21298;DHT22;10808;48.010;11.326;2023-01-24T00:27:58;2.00;99.90
21298;DHT22;10808;48.010;11.326;2023-01-24T00:30:24;2.00;99.90
21298;DHT22;10808;48.010;11.326;2023-01-24T00:32:50;2.00;99.90
21298;DHT22;10808;48.010;11.326;2023-01-24T00:35:16;1.90;99.90
21298;DHT22;10808;48.010;11.326;2023-01-24T00:37:42;2.00;99.90
21298;DHT22;10808;48.010;11.326;2023-01-24T00:40:09;1.90;99.90
21298;DHT22;10808;48.010;11.326;2023-01-24T00:42:35;1.90;99.90
21298;DHT22;10808;48.010;11.326;2023-01-24T00:45:01;1.90;99.90
21298;DHT22;10808;48.010;11.326;2023-01-24T00:47:27;2.00;99.90
21298;DHT22;10808;48.010;11.326;2023-01-24T00:49:53;2.00;99.90
21298;DHT22;10808;48.010;11.326;2023-01-24T00:52:19;2.00;99.90
21298;DHT22;10808;48.010;11.326;2023-01-24T00:54:45;2.00;99.90
21298;DHT22;10808;48.010;11.326;2023-01-24T00:57:11;2.00;99.90
21298;DHT22;10808;48.010;11.326;2023-01-24T00:59:37;2.00;99.90
21298;DHT22;10808;48.010;11.326;2023-01-24T01:02:03;2.00;99.90
21298;DHT22;10808;48.010;11.326;2023-01-24T01:04:29;2.00;99.90
21298;DHT22;10808;48.010;11.326;2023-01-24T01:06:55;1.90;99.90
21298;DHT22;10808;48.010;11.326;2023-01-24T01:09:21;2.00;99.90
21298;DHT22;10808;48.010;11.326;2023-01-24T01:11:47;2.00;99.90
21298;DHT22;10808;48.010;11.326;2023-01-24T01:14:13;2.00;99.90
21298;DHT22;10808;48.010;11.326;2023-01-24T01:16:39;2.10;99.90
21298;DHT22;10808;48.010;11.326;2023-01-24T01:19:05;2.10;99.90
21298;DHT22;10808;48.010;11.326;2023-01-24T01:21:32;2.10;99.90
21298;DHT22;10808;48.010;11.326;2023-01-24T01:23:58;2.10;99.90
21298;DHT22;10808;48.010;11.326;2023-01-24T01:26:24;2.10;99.90
21298;DHT22;10808;48.010;11.326;2023-01-24T01:28:51;2.00;99.90
21298;DHT22;10808;48.010;11.326;2023-01-24T01:31:17;2.00;99.90
21298;DHT22;10808;48.010;11.326;2023-01-24T01:33:44;2.00;99.90
21298;DHT22;10808;48.010;11.326;2023-01-24T01:36:10;2.00;99.90
21298;DHT22;10808;48.010;11.326;2023-01-24T01:38:37;2.10;99.90
21298;DHT22;10808;48.010;11.326;2023-01-24T01:41:03;2.00;99.90
21298;DHT22;10808;48.010;11.326;2023-01-24T01:43:30;2.00;99.90
21298;DHT22;10808;48.010;11.326;2023-01-24T01:46:21;2.00;99.90
21298;DHT22;10808;48.010;11.326;2023-01-24T01:48:51;2.00;99.90
21298;DHT22;10808;48.010;11.326;2023-01-24T01:51:47;2.00;99.90
21298;DHT22;10808;48.010;11.326;2023-01-24T01:54:21;2.10;99.90
21298;DHT22;10808;48.010;11.326;2023-01-24T01:56:53;2.10;99.90
21298;DHT22;10808;48.010;11.326;2023-01-24T01:59:26;2.10;99.90
21298;DHT22;10808;48.010;11.326;2023-01-24T02:01:53;2.10;99.90
21298;DHT22;10808;48.010;11.326;2023-01-24T02:04:27;2.10;99.90
21298;DHT22;10808;48.010;11.326;2023-01-24T02:07:18;2.10;99.90
21298;DHT22;10808;48.010;11.326;2023-01-24T02:09:50;2.10;99.90
21298;DHT22;10808;48.010;11.326;2023-01-24T02:12:40;2.10;99.90
21298;DHT22;10808;48.010;11.326;2023-01-24T02:15:27;2.10;99.90
21298;DHT22;10808;48.010;11.326;2023-01-24T02:18:12;2.10;99.90
21298;DHT22;10808;48.010;11.326;2023-01-24T02:20:41;2.10;99.90
21298;DHT22;10808;48.010;11.326;2023-01-24T02:26:11;2.10;99.90
21298;DHT22;10808;48.010;11.326;2023-01-24T02:28:45;2.10;99.90
21298;DHT22;10808;48.010;11.326;2023-01-24T02:31:12;2.10;99.90
21298;DHT22;10808;48.010;11.326;2023-01-24T02:33:38;2.10;99.90
21298;DHT22;10808;48.010;11.326;2023-01-24T02:36:22;2.20;99.90
21298;DHT22;10808;48.010;11.326;2023-01-24T02:39:06;2.10;99.90
21298;DHT22;10808;48.010;11.326;2023-01-24T02:41:48;2.10;99.90
21298;DHT22;10808;48.010;11.326;2023-01-24T02:44:39;2.10;99.90
21298;DHT22;10808;48.010;11.326;2023-01-24T02:47:06;2.10;99.90
21298;DHT22;10808;48.010;11.326;2023-01-24T02:49:32;2.10;99.90
21298;DHT22;10808;48.010;11.326;2023-01-24T02:51:58;2.10;99.90
21298;DHT22;10808;48.010;11.326;2023-01-24T02:54:43;2.10;99.90
21298;DHT22;10808;48.010;11.326;2023-01-24T02:57:09;2.10;99.90
21298;DHT22;10808;48.010;11.326;2023-01-24T02:59:53;2.10;99.90
21298;DHT22;10808;48.010;11.326;2023-01-24T03:02:19;2.10;99.90
21298;DHT22;10808;48.010;11.326;2023-01-24T03:04:45;2.10;99.90
21298;DHT22;10808;48.010;11.326;2023-01-24T03:07:11;2.10;99.90
21298;DHT22;10808;48.010;11.326;2023-01-24T03:09:37;2.10;99.90
21298;DHT22;10808;48.010;11.326;2023-01-24T03:12:11;2.10;99.90
21298;DHT22;10808;48.010;11.326;2023-01-24T03:14:57;2.10;99.90
21298;DHT22;10808;48.010;11.326;2023-01-24T03:17:42;2.10;99.90
21298;DHT22;10808;48.010;11.326;2023-01-24T03:20:26;2.10;99.90
21298;DHT22;10808;48.010;11.326;2023-01-24T03:23:11;2.10;99.90
21298;DHT22;10808;48.010;11.326;2023-01-24T03:25:56;2.00;99.90
21298;DHT22;10808;48.010;11.326;2023-01-24T03:28:42;2.10;99.90
21298;DHT22;10808;48.010;11.326;2023-01-24T03:31:27;2.10;99.90
21298;DHT22;10808;48.010;11.326;2023-01-24T03:34:12;2.10;99.90
21298;DHT22;10808;48.010;11.326;2023-01-24T03:36:57;2.10;99.90
21298;DHT22;10808;48.010;11.326;2023-01-24T03:39:23;2.10;99.90
21298;DHT22;10808;48.010;11.326;2023-01-24T03:42:07;2.10;99.90
21298;DHT22;10808;48.010;11.326;2023-01-24T03:44:34;2.10;99.90
21298;DHT22;10808;48.010;11.326;2023-01-24T03:47:00;2.10;99.90
21298;DHT22;10808;48.010;11.326;2023-01-24T03:49:26;2.20;99.90
21298;DHT22;10808;48.010;11.326;2023-01-24T03:52:11;2.20;99.90
21298;DHT22;10808;48.010;11.326;2023-01-24T03:54:56;2.20;99.90
21298;DHT22;10808;48.010;11.326;2023-01-24T03:57:22;2.20;99.90
21298;DHT22;10808;48.010;11.326;2023-01-24T03:59:49;2.20;99.90
21298;DHT22;10808;48.010;11.326;2023-01-24T04:02:16;2.20;99.90
21298;DHT22;10808;48.010;11.326;2023-01-24T04:04:42;2.10;99.90
21298;DHT22;10808;48.010;11.326;2023-01-24T04:07:27;2.20;99.90
21298;DHT22;10808;48.010;11.326;2023-01-24T04:09:54;2.20;99.90
21298;DHT22;10808;48.010;11.326;2023-01-24T04:12:20;2.20;99.90
21298;DHT22;10808;48.010;11.326;2023-01-24T04:14:46;2.20;99.90
21298;DHT22;10808;48.010;11.326;2023-01-24T04:17:12;2.20;99.90
21298;DHT22;10808;48.010;11.326;2023-01-24T04:19:38;2.20;99.90
21298;DHT22;10808;48.010;11.326;2023-01-24T04:22:04;2.20;99.90
21298;DHT22;10808;48.010;11.326;2023-01-24T04:24:30;2.20;99.90
21298;DHT22;10808;48.010;11.326;2023-01-24T04:26:56;2.20;99.90
21298;DHT22;10808;48.010;11.326;2023-01-24T04:29:22;2.20;99.90
21298;DHT22;10808;48.010;11.326;2023-01-24T04:31:48;2.30;99.90
21298;DHT22;10808;48.010;11.326;2023-01-24T04:34:14;2.30;99.90
21298;DHT22;10808;48.010;11.326;2023-01-24T04:36:43;2.30;99.90
21298;DHT22;10808;48.010;11.326;2023-01-24T04:39:09;2.30;99.90
21298;DHT22;10808;48.010;11.326;2023-01-24T04:41:35;2.20;99.90
21298;DHT22;10808;48.010;11.326;2023-01-24T04:44:01;2.20;99.90
21298;DHT22;10808;48.010;11.326;2023-01-24T04:46:28;2.20;99.90
21298;DHT22;10808;48.010;11.326;2023-01-24T04:48:54;2.30;99.90
21298;DHT22;10808;48.010;11.326;2023-01-24T04:51:20;2.30;99.90
21298;DHT22;10808;48.010;11.326;2023-01-24T04:53:46;2.20;99.90
21298;DHT22;10808;48.010;11.326;2023-01-24T04:56:12;2.30;99.90
21298;DHT22;10808;48.010;11.326;2023-01-24T04:58:38;2.30;99.90
21298;DHT22;10808;48.010;11.326;2023-01-24T05:01:04;2.30;99.90
21298;DHT22;10808;48.010;11.326;2023-01-24T05:03:30;2.30;99.90
21298;DHT22;10808;48.010;11.326;2023-01-24T05:05:56;2.30;99.90
21298;DHT22;10808;48.010;11.326;2023-01-24T05:08:22;2.30;99.90
21298;DHT22;10808;48.010;11.326;2023-01-24T05:10:49;2.20;99.90
21298;DHT22;10808;48.010;11.326;2023-01-24T05:13:15;2.20;99.90
21298;DHT22;10808;48.010;11.326;2023-01-24T05:15:48;2.20;99.90
21298;DHT22;10808;48.010;11.326;2023-01-24T05:18:15;2.30;99.90
21298;DHT22;10808;48.010;11.326;2023-01-24T05:20:41;2.30;99.90
21298;DHT22;10808;48.010;11.326;2023-01-24T05:23:07;2.30;99.90
21298;DHT22;10808;48.010;11.326;2023-01-24T05:25:33;2.30;99.90
21298;DHT22;10808;48.010;11.326;2023-01-24T05:27:59;2.30;99.90
21298;DHT22;10808;48.010;11.326;2023-01-24T05:30:25;2.30;99.90
21298;DHT22;10808;48.010;11.326;2023-01-24T05:32:55;2.30;99.90
21298;DHT22;10808;48.010;11.326;2023-01-24T05:35:21;2.30;99.90
21298;DHT22;10808;48.010;11.326;2023-01-24T05:37:47;2.30;99.90
21298;DHT22;10808;48.010;11.326;2023-01-24T05:40:13;2.30;99.90
21298;DHT22;10808;48.010;11.326;2023-01-24T05:42:40;2.30;99.90
21298;DHT22;10808;48.010;11.326;2023-01-24T05:45:08;2.30;99.90
21298;DHT22;10808;48.010;11.326;2023-01-24T05:47:34;2.30;99.90
21298;DHT22;10808;48.010;11.326;2023-01-24T05:50:01;2.30;99.90
21298;DHT22;10808;48.010;11.326;2023-01-24T05:52:27;2.30;99.90
21298;DHT22;10808;48.010;11.326;2023-01-24T05:54:54;2.40;99.90
21298;DHT22;10808;48.010;11.326;2023-01-24T05:57:20;2.40;99.90
21298;DHT22;10808;48.010;11.326;2023-01-24T05:59:46;2.40;99.90
21298;DHT22;10808;48.010;11.326;2023-01-24T06:02:14;2.40;99.90
21298;DHT22;10808;48.010;11.326;2023-01-24T06:04:40;2.30;99.90
21298;DHT22;10808;48.010;11.326;2023-01-24T06:07:06;2.30;99.90
21298;DHT22;10808;48.010;11.326;2023-01-24T06:09:32;2.40;99.90
21298;DHT22;10808;48.010;11.326;2023-01-24T06:12:11;2.40;99.90
21298;DHT22;10808;48.010;11.326;2023-01-24T06:14:37;2.40;99.90
21298;DHT22;10808;48.010;11.326;2023-01-24T06:17:05;2.40;99.90
21298;DHT22;10808;48.010;11.326;2023-01-24T06:19:31;2.40;99.90
21298;DHT22;10808;48.010;11.326;2023-01-24T06:22:13;2.50;99.90
21298;DHT22;10808;48.010;11.326;2023-01-24T06:24:43;2.40;99.90
21298;DHT22;10808;48.010;11.326;2023-01-24T06:27:09;2.40;99.90
21298;DHT22;10808;48.010;11.326;2023-01-24T06:29:36;2.40;99.90
21298;DHT22;10808;48.010;11.326;2023-01-24T06:35:06;2.50;99.90
21298;DHT22;10808;48.010;11.326;2023-01-24T06:40:06;2.40;99.90
21298;DHT22;10808;48.010;11.326;2023-01-24T06:42:34;2.40;99.90
21298;DHT22;10808;48.010;11.326;2023-01-24T06:45:00;2.50;99.90
21298;DHT22;10808;48.010;11.326;2023-01-24T06:47:26;2.50;99.90
21298;DHT22;10808;48.010;11.326;2023-01-24T06:49:54;2.40;99.90
21298;DHT22;10808;48.010;11.326;2023-01-24T06:52:20;2.50;99.90
21298;DHT22;10808;48.010;11.326;2023-01-24T06:54:56;2.50;99.90
21298;DHT22;10808;48.010;11.326;2023-01-24T06:57:22;2.50;99.90
21298;DHT22;10808;48.010;11.326;2023-01-24T06:59:48;2.50;99.90
21298;DHT22;10808;48.010;11.326;2023-01-24T07:02:14;2.50;99.90
21298;DHT22;10808;48.010;11.326;2023-01-24T07:04:40;2.50;99.90
21298;DHT22;10808;48.010;11.326;2023-01-24T07:07:06;2.50;99.90
21298;DHT22;10808;48.010;11.326;2023-01-24T07:09:32;2.50;99.90
21298;DHT22;10808;48.010;11.326;2023-01-24T07:11:58;2.50;99.90
21298;DHT22;10808;48.010;11.326;2023-01-24T07:14:25;2.50;99.90
21298;DHT22;10808;48.010;11.326;2023-01-24T07:16:51;2.40;99.90
21298;DHT22;10808;48.010;11.326;2023-01-24T07:19:22;2.50;99.90
21298;DHT22;10808;48.010;11.326;2023-01-24T07:21:50;2.50;99.90
21298;DHT22;10808;48.010;11.326;2023-01-24T07:24:24;2.40;99.90
21298;DHT22;10808;48.010;11.326;2023-01-24T07:26:51;2.50;99.90
21298;DHT22;10808;48.010;11.326;2023-01-24T07:29:18;2.40;99.90
21298;DHT22;10808;48.010;11.326;2023-01-24T07:31:44;2.40;99.90
21298;DHT22;10808;48.010;11.326;2023-01-24T07:34:11;2.50;99.90
21298;DHT22;10808;48.010;11.326;2023-01-24T07:36:37;2.50;99.90
21298;DHT22;10808;48.010;11.326;2023-01-24T07:39:03;2.50;99.90
21298;DHT22;10808;48.010;11.326;2023-01-24T07:41:29;2.60;99.90
21298;DHT22;10808;48.010;11.326;2023-01-24T07:43:55;2.60;99.90
21298;DHT22;10808;48.010;11.326;2023-01-24T07:46:21;2.60;99.90
21298;DHT22;10808;48.010;11.326;2023-01-24T07:48:47;2.60;99.90
21298;DHT22;10808;48.010;11.326;2023-01-24T07:51:13;2.60;99.90
21298;DHT22;10808;48.010;11.326;2023-01-24T07:53:39;2.60;99.90
21298;DHT22;10808;48.010;11.326;2023-01-24T07:56:05;2.60;99.90
21298;DHT22;10808;48.010;11.326;2023-01-24T07:58:31;2.60;99.90
21298;DHT22;10808;48.010;11.326;2023-01-24T08:00:58;2.60;99.90
21298;DHT22;10808;48.010;11.326;2023-01-24T08:03:24;2.60;99.90
21298;DHT22;10808;48.010;11.326;2023-01-24T08:05:50;2.60;99.90
21298;DHT22;10808;48.010;11.326;2023-01-24T08:08:16;2.60;99.90
21298;DHT22;10808;48.010;11.326;2023-01-24T08:10:42;2.70;99.90
21298;DHT22;10808;48.010;11.326;2023-01-24T08:13:08;2.60;99.90
21298;DHT22;10808;48.010;11.326;2023-01-24T08:15:34;2.60;99.90
21298;DHT22;10808;48.010;11.326;2023-01-24T08:18:04;2.60;99.90
21298;DHT22;10808;48.010;11.326;2023-01-24T08:20:30;2.70;99.90
21298;DHT22;10808;48.010;11.326;2023-01-24T08:22:57;2.70;99.90
21298;DHT22;10808;48.010;11.326;2023-01-24T08:25:25;2.70;99.90
21298;DHT22;10808;48.010;11.326;2023-01-24T08:27:51;2.70;99.90
21298;DHT22;10808;48.010;11.326;2023-01-24T08:30:17;2.70;99.90
21298;DHT22;10808;48.010;11.326;2023-01-24T08:32:43;2.70;99.90
21298;DHT22;10808;48.010;11.326;2023-01-24T08:35:09;2.70;99.90
21298;DHT22;10808;48.010;11.326;2023-01-24T08:37:36;2.70;99.90
21298;DHT22;10808;48.010;11.326;2023-01-24T08:40:02;2.70;99.90
21298;DHT22;10808;48.010;11.326;2023-01-24T08:42:29;2.70;99.90
21298;DHT22;10808;48.010;11.326;2023-01-24T08:44:55;2.70;99.90
21298;DHT22;10808;48.010;11.326;2023-01-24T08:47:21;2.70;99.90
21298;DHT22;10808;48.010;11.326;2023-01-24T08:49:47;2.70;99.90
21298;DHT22;10808;48.010;11.326;2023-01-24T08:52:13;2.70;99.90
21298;DHT22;10808;48.010;11.326;2023-01-24T08:54:39;2.70;99.90
21298;DHT22;10808;48.010;11.326;2023-01-24T08:57:06;2.70;99.90
21298;DHT22;10808;48.010;11.326;2023-01-24T08:59:34;2.70;99.90
21298;DHT22;10808;48.010;11.326;2023-01-24T09:02:00;2.70;99.90
21298;DHT22;10808;48.010;11.326;2023-01-24T09:04:26;2.70;99.90
21298;DHT22;10808;48.010;11.326;2023-01-24T09:06:52;2.70;99.90
21298;DHT22;10808;48.010;11.326;2023-01-24T09:09:19;2.70;99.90
21298;DHT22;10808;48.010;11.326;2023-01-24T09:11:45;2.80;99.90
21298;DHT22;10808;48.010;11.326;2023-01-24T09:14:11;2.80;99.90
21298;DHT22;10808;48.010;11.326;2023-01-24T09:16:37;2.80;99.90
21298;DHT22;10808;48.010;11.326;2023-01-24T09:19:03;2.80;99.90
21298;DHT22;10808;48.010;11.326;2023-01-24T09:21:29;2.80;99.90
21298;DHT22;10808;48.010;11.326;2023-01-24T09:23:56;2.80;99.90
21298;DHT22;10808;48.010;11.326;2023-01-24T09:26:22;2.80;99.90
21298;DHT22;10808;48.010;11.326;2023-01-24T09:28:48;2.80;99.90
21298;DHT22;10808;48.010;11.326;2023-01-24T09:31:14;2.90;99.90
21298;DHT22;10808;48.010;11.326;2023-01-24T09:33:41;2.90;99.90
21298;DHT22;10808;48.010;11.326;2023-01-24T09:36:07;2.90;99.90
21298;DHT22;10808;48.010;11.326;2023-01-24T09:38:34;3.00;99.90
21298;DHT22;10808;48.010;11.326;2023-01-24T09:41:37;3.00;99.90
21298;DHT22;10808;48.010;11.326;2023-01-24T09:44:15;3.00;99.90
21298;DHT22;10808;48.010;11.326;2023-01-24T09:46:48;3.00;99.90
21298;DHT22;10808;48.010;11.326;2023-01-24T09:49:34;3.00;99.90
21298;DHT22;10808;48.010;11.326;2023-01-24T09:52:07;3.00;99.90
21298;DHT22;10808;48.010;11.326;2023-01-24T09:54:36;3.00;99.90
21298;DHT22;10808;48.010;11.326;2023-01-24T09:57:13;3.00;99.90
21298;DHT22;10808;48.010;11.326;2023-01-24T09:59:46;3.00;99.90
21298;DHT22;10808;48.010;11.326;2023-01-24T10:02:18;2.90;99.90
21298;DHT22;10808;48.010;11.326;2023-01-24T10:04:46;2.90;99.90
21298;DHT22;10808;48.010;11.326;2023-01-24T10:07:40;2.90;99.90
21298;DHT22;10808;48.010;11.326;2023-01-24T10:10:37;2.90;99.90
21298;DHT22;10808;48.010;11.326;2023-01-24T10:13:41;2.90;99.90
21298;DHT22;10808;48.010;11.326;2023-01-24T10:19:21;2.90;99.90
21298;DHT22;10808;48.010;11.326;2023-01-24T10:25:12;2.90;99.90
21298;DHT22;10808;48.010;11.326;2023-01-24T10:27:40;2.90;99.90
21298;DHT22;10808;48.010;11.326;2023-01-24T10:30:22;3.00;99.90
21298;DHT22;10808;48.010;11.326;2023-01-24T10:32:52;3.00;99.90
21298;DHT22;10808;48.010;11.326;2023-01-24T10:35:29;3.00;99.90
21298;DHT22;10808;48.010;11.326;2023-01-24T10:38:00;3.00;99.90
21298;DHT22;10808;48.010;11.326;2023-01-24T10:40:28;3.10;99.90
21298;DHT22;10808;48.010;11.326;2023-01-24T10:42:54;3.00;99.90
21298;DHT22;10808;48.010;11.326;2023-01-24T10:48:49;3.00;99.90
21298;DHT22;10808;48.010;11.326;2023-01-24T10:51:17;3.00;99.90
21298;DHT22;10808;48.010;11.326;2023-01-24T10:53:44;3.00;99.90
21298;DHT22;10808;48.010;11.326;2023-01-24T10:56:10;3.10;99.90
21298;DHT22;10808;48.010;11.326;2023-01-24T10:58:44;3.10;99.90
21298;DHT22;10808;48.010;11.326;2023-01-24T11:01:21;3.10;99.90
21298;DHT22;10808;48.010;11.326;2023-01-24T11:03:50;3.00;99.90
21298;DHT22;10808;48.010;11.326;2023-01-24T11:06:24;3.00;99.90
21298;DHT22;10808;48.010;11.326;2023-01-24T11:09:27;3.10;99.90
21298;DHT22;10808;48.010;11.326;2023-01-24T11:11:56;3.10;99.90
21298;DHT22;10808;48.010;11.326;2023-01-24T11:14:25;3.10;99.90
21298;DHT22;10808;48.010;11.326;2023-01-24T11:16:55;3.10;99.90
21298;DHT22;10808;48.010;11.326;2023-01-24T11:19:28;3.10;99.90
21298;DHT22;10808;48.010;11.326;2023-01-24T11:22:24;3.20;99.90
21298;DHT22;10808;48.010;11.326;2023-01-24T11:24:56;3.10;99.90
21298;DHT22;10808;48.010;11.326;2023-01-24T11:27:22;3.10;99.90
21298;DHT22;10808;48.010;11.326;2023-01-24T11:35:35;3.20;99.90
21298;DHT22;10808;48.010;11.326;2023-01-24T11:40:46;3.20;99.90
21298;DHT22;10808;48.010;11.326;2023-01-24T11:43:31;3.20;99.90
21298;DHT22;10808;48.010;11.326;2023-01-24T11:49:24;3.20;99.90
21298;DHT22;10808;48.010;11.326;2023-01-24T11:52:38;3.20;99.90
21298;DHT22;10808;48.010;11.326;2023-01-24T11:55:21;3.10;99.90
21298;DHT22;10808;48.010;11.326;2023-01-24T11:58:28;3.10;99.90
21298;DHT22;10808;48.010;11.326;2023-01-24T12:09:01;3.20;99.90
21298;DHT22;10808;48.010;11.326;2023-01-24T12:11:39;3.10;99.90
21298;DHT22;10808;48.010;11.326;2023-01-24T12:14:21;3.20;99.90
21298;DHT22;10808;48.010;11.326;2023-01-24T12:22:39;3.20;99.90
21298;DHT22;10808;48.010;11.326;2023-01-24T12:25:44;3.30;99.90
21298;DHT22;10808;48.010;11.326;2023-01-24T12:28:17;3.20;99.90
21298;DHT22;10808;48.010;11.326;2023-01-24T12:30:51;3.20;99.90
21298;DHT22;10808;48.010;11.326;2023-01-24T12:33:40;3.20;99.90
21298;DHT22;10808;48.010;11.326;2023-01-24T12:36:13;3.20;99.90
21298;DHT22;10808;48.010;11.326;2023-01-24T12:38:45;3.20;99.90
21298;DHT22;10808;48.010;11.326;2023-01-24T12:41:26;3.10;99.90
21298;DHT22;10808;48.010;11.326;2023-01-24T12:44:26;3.20;99.90
21298;DHT22;10808;48.010;11.326;2023-01-24T12:49:52;3.20;99.90
21298;DHT22;10808;48.010;11.326;2023-01-24T12:52:39;3.20;99.90
21298;DHT22;10808;48.010;11.326;2023-01-24T12:57:51;3.30;99.90
21298;DHT22;10808;48.010;11.326;2023-01-24T13:00:22;3.30;99.90
21298;DHT22;10808;48.010;11.326;2023-01-24T13:06:26;3.20;99.90
21298;DHT22;10808;48.010;11.326;2023-01-24T13:11:43;3.10;99.90
21298;DHT22;10808;48.010;11.326;2023-01-24T13:23:26;3.10;99.90
21298;DHT22;10808;48.010;11.326;2023-01-24T13:28:20;3.10;99.90
21298;DHT22;10808;48.010;11.326;2023-01-24T13:31:17;3.10;99.90
21298;DHT22;10808;48.010;11.326;2023-01-24T13:33:52;3.10;99.90
21298;DHT22;10808;48.010;11.326;2023-01-24T13:36:23;3.10;99.90
21298;DHT22;10808;48.010;11.326;2023-01-24T13:38:51;3.10;99.90
21298;DHT22;10808;48.010;11.326;2023-01-24T13:41:31;3.10;99.90
21298;DHT22;10808;48.010;11.326;2023-01-24T13:44:26;3.00;99.90
21298;DHT22;10808;48.010;11.326;2023-01-24T13:54:59;3.00;99.90
21298;DHT22;10808;48.010;11.326;2023-01-24T13:57:26;3.00;99.90
21298;DHT22;10808;48.010;11.326;2023-01-24T14:03:23;3.00;99.90
21298;DHT22;10808;48.010;11.326;2023-01-24T14:06:04;3.00;99.90
21298;DHT22;10808;48.010;11.326;2023-01-24T14:08:34;2.90;99.90
21298;DHT22;10808;48.010;11.326;2023-01-24T14:16:57;3.00;99.90
21298;DHT22;10808;48.010;11.326;2023-01-24T14:21:55;3.00;99.90
21298;DHT22;10808;48.010;11.326;2023-01-24T14:24:27;3.00;99.90
21298;DHT22;10808;48.010;11.326;2023-01-24T14:27:23;3.00;99.90
21298;DHT22;10808;48.010;11.326;2023-01-24T14:29:53;3.00;99.90
21298;DHT22;10808;48.010;11.326;2023-01-24T14:32:25;3.00;99.90
21298;DHT22;10808;48.010;11.326;2023-01-24T14:35:18;2.90;99.90
21298;DHT22;10808;48.010;11.326;2023-01-24T14:37:46;2.90;99.90
21298;DHT22;10808;48.010;11.326;2023-01-24T14:42:47;2.90;99.90
21298;DHT22;10808;48.010;11.326;2023-01-24T14:45:16;2.90;99.90
21298;DHT22;10808;48.010;11.326;2023-01-24T14:47:47;2.90;99.90
21298;DHT22;10808;48.010;11.326;2023-01-24T14:50:29;3.00;99.90
21298;DHT22;10808;48.010;11.326;2023-01-24T14:52:57;3.00;99.90
21298;DHT22;10808;48.010;11.326;2023-01-24T14:57:54;3.00;99.90
21298;DHT22;10808;48.010;11.326;2023-01-24T15:00:21;2.90;99.90
21298;DHT22;10808;48.010;11.326;2023-01-24T15:02:55;2.90;99.90
21298;DHT22;10808;48.010;11.326;2023-01-24T15:05:28;2.90;99.90
21298;DHT22;10808;48.010;11.326;2023-01-24T15:07:55;2.80;99.90
21298;DHT22;10808;48.010;11.326;2023-01-24T15:12:54;2.90;99.90
21298;DHT22;10808;48.010;11.326;2023-01-24T15:15:21;2.80;99.90
21298;DHT22;10808;48.010;11.326;2023-01-24T15:17:48;2.80;99.90
21298;DHT22;10808;48.010;11.326;2023-01-24T15:20:21;2.80;99.90
21298;DHT22;10808;48.010;11.326;2023-01-24T15:22:50;2.80;99.90
21298;DHT22;10808;48.010;11.326;2023-01-24T15:25:21;2.80;99.90
21298;DHT22;10808;48.010;11.326;2023-01-24T15:27:48;2.80;99.90
21298;DHT22;10808;48.010;11.326;2023-01-24T15:30:20;2.80;99.90
21298;DHT22;10808;48.010;11.326;2023-01-24T15:32:49;2.80;99.90
21298;DHT22;10808;48.010;11.326;2023-01-24T15:40:37;2.80;99.90
21298;DHT22;10808;48.010;11.326;2023-01-24T15:43:20;2.80;99.90
21298;DHT22;10808;48.010;11.326;2023-01-24T15:46:05;2.80;99.90
21298;DHT22;10808;48.010;11.326;2023-01-24T15:49:02;2.80;99.90
21298;DHT22;10808;48.010;11.326;2023-01-24T15:51:34;2.80;99.90
21298;DHT22;10808;48.010;11.326;2023-01-24T15:54:01;2.80;99.90
21298;DHT22;10808;48.010;11.326;2023-01-24T15:56:29;2.80;99.90
21298;DHT22;10808;48.010;11.326;2023-01-24T15:58:55;2.80;99.90
21298;DHT22;10808;48.010;11.326;2023-01-24T16:01:26;2.80;99.90
21298;DHT22;10808;48.010;11.326;2023-01-24T16:04:07;2.80;99.90
21298;DHT22;10808;48.010;11.326;2023-01-24T16:06:34;2.70;99.90
21298;DHT22;10808;48.010;11.326;2023-01-24T16:09:01;2.70;99.90
21298;DHT22;10808;48.010;11.326;2023-01-24T16:11:27;2.70;99.90
21298;DHT22;10808;48.010;11.326;2023-01-24T16:13:53;2.70;99.90
21298;DHT22;10808;48.010;11.326;2023-01-24T16:16:21;2.60;99.90
21298;DHT22;10808;48.010;11.326;2023-01-24T16:18:48;2.60;99.90
21298;DHT22;10808;48.010;11.326;2023-01-24T16:21:15;2.60;99.90
21298;DHT22;10808;48.010;11.326;2023-01-24T16:23:41;2.60;99.90
21298;DHT22;10808;48.010;11.326;2023-01-24T16:26:21;2.70;99.90
21298;DHT22;10808;48.010;11.326;2023-01-24T16:28:48;2.70;99.90
21298;DHT22;10808;48.010;11.326;2023-01-24T16:31:14;2.70;99.90
21298;DHT22;10808;48.010;11.326;2023-01-24T16:33:40;2.70;99.90
21298;DHT22;10808;48.010;11.326;2023-01-24T16:36:07;2.70;99.90
21298;DHT22;10808;48.010;11.326;2023-01-24T16:38:34;2.70;99.90
21298;DHT22;10808;48.010;11.326;2023-01-24T16:41:02;2.70;99.90
21298;DHT22;10808;48.010;11.326;2023-01-24T16:43:29;2.70;99.90
21298;DHT22;10808;48.010;11.326;2023-01-24T16:45:55;2.70;99.90
21298;DHT22;10808;48.010;11.326;2023-01-24T16:48:21;2.70;99.90
21298;DHT22;10808;48.010;11.326;2023-01-24T16:50:47;2.70;99.90
21298;DHT22;10808;48.010;11.326;2023-01-24T16:53:14;2.70;99.90
21298;DHT22;10808;48.010;11.326;2023-01-24T16:55:41;2.80;99.90
21298;DHT22;10808;48.010;11.326;2023-01-24T16:58:09;2.80;99.90
21298;DHT22;10808;48.010;11.326;2023-01-24T17:00:35;2.70;99.90
21298;DHT22;10808;48.010;11.326;2023-01-24T17:03:02;2.70;99.90
21298;DHT22;10808;48.010;11.326;2023-01-24T17:05:29;2.70;99.90
21298;DHT22;10808;48.010;11.326;2023-01-24T17:07:56;2.70;99.90
21298;DHT22;10808;48.010;11.326;2023-01-24T17:10:23;2.70;99.90
21298;DHT22;10808;48.010;11.326;2023-01-24T17:12:49;2.70;99.90
21298;DHT22;10808;48.010;11.326;2023-01-24T17:15:16;2.70;99.90
21298;DHT22;10808;48.010;11.326;2023-01-24T17:17:42;2.70;99.90
21298;DHT22;10808;48.010;11.326;2023-01-24T17:20:10;2.70;99.90
21298;DHT22;10808;48.010;11.326;2023-01-24T17:22:37;2.80;99.90
21298;DHT22;10808;48.010;11.326;2023-01-24T17:25:04;2.80;99.90
21298;DHT22;10808;48.010;11.326;2023-01-24T17:27:30;2.80;99.90
21298;DHT22;10808;48.010;11.326;2023-01-24T17:29:57;2.80;99.90
21298;DHT22;10808;48.010;11.326;2023-01-24T17:32:23;2.70;99.90